Time;durP1;ratioP1;P1;durP2;ratioP2;P2;SDS_P1;SDS_P2;PMS_P1;PMS_P2;Temp;Humidity;BMP_temperature;BMP_pressure;BME280_temperature;BME280_humidity;BME280_pressure;Samples;Min_cycle;Max_cycle;Signal;HPM_P1;HPM_P2
2023/05/09 00:01:11;;;;;;;1.10;1.10;;;;;;;14.75;100.00;96896.88;5055167;28;20529;-62
2023/05/09 00:03:38;;;;;;;2.10;1.40;;;;;;;14.75;100.00;96885.38;5058812;28;20199;-62
2023/05/09 00:06:06;;;;;;;1.80;1.47;;;;;;;14.76;100.00;96893.22;5054956;28;20631;-61
2023/05/09 00:08:33;;;;;;;3.60;1.50;;;;;;;14.78;100.00;96891.22;5059389;28;20199;-63
2023/05/09 00:11:00;;;;;;;1.63;1.53;;;;;;;14.80;100.00;96891.91;5055328;28;20207;-63
2023/05/09 00:13:26;;;;;;;1.75;1.63;;;;;;;14.84;100.00;96876.44;5054746;28;20214;-65
2023/05/09 00:15:53;;;;;;;1.57;1.57;;;;;;;14.84;100.00;96885.25;5055262;28;20218;-64
2023/05/09 00:18:20;;;;;;;1.67;1.57;;;;;;;14.86;100.00;96879.75;5055116;28;20227;-64
2023/05/09 00:20:47;;;;;;;1.65;1.65;;;;;;;14.88;100.00;96869.75;5058979;28;20325;-64
2023/05/09 00:23:15;;;;;;;1.70;1.60;;;;;;;14.86;100.00;96871.78;5074521;28;20221;-64
2023/05/09 00:25:41;;;;;;;1.57;1.57;;;;;;;14.85;100.00;96868.28;5061819;28;20543;-64
2023/05/09 00:28:08;;;;;;;2.37;1.63;;;;;;;14.82;100.00;96876.59;5074509;28;20206;-65
2023/05/09 00:30:35;;;;;;;2.33;1.60;;;;;;;14.82;100.00;96865.94;5061531;28;20230;-62
2023/05/09 00:33:01;;;;;;;2.40;1.63;;;;;;;14.79;100.00;96868.09;5054731;28;20207;-63
2023/05/09 00:35:28;;;;;;;2.63;1.50;;;;;;;14.72;100.00;96862.59;5068097;28;20218;-63
2023/05/09 00:37:54;;;;;;;1.63;1.53;;;;;;;14.71;100.00;96871.56;5067921;28;20269;-64
2023/05/09 00:40:22;;;;;;;2.35;1.25;;;;;;;14.68;100.00;96871.91;5054726;28;20232;-64
2023/05/09 00:42:49;;;;;;;2.78;1.42;;;;;;;14.69;100.00;96862.94;5074069;28;20214;-63
2023/05/09 00:45:16;;;;;;;4.22;1.73;;;;;;;14.64;100.00;96867.91;5078825;28;20288;-63
2023/05/09 00:47:42;;;;;;;4.97;1.70;;;;;;;14.57;100.00;96855.41;5054418;28;20209;-64
2023/05/09 00:50:10;;;;;;;3.00;1.53;;;;;;;14.53;100.00;96857.53;5054657;28;20214;-62
2023/05/09 00:52:36;;;;;;;3.50;1.60;;;;;;;14.47;100.00;96852.88;5054503;28;20214;-64
2023/05/09 00:55:04;;;;;;;2.53;1.20;;;;;;;14.45;100.00;96852.22;5054393;28;20207;-64
2023/05/09 00:57:32;;;;;;;2.15;1.30;;;;;;;14.40;100.00;96851.88;5054558;28;20207;-63
2023/05/09 00:59:58;;;;;;;1.63;1.53;;;;;;;14.35;100.00;96854.16;5053741;28;20231;-63
2023/05/09 01:02:25;;;;;;;2.78;1.73;;;;;;;14.33;100.00;96851.66;5054440;28;20213;-63
2023/05/09 01:04:52;;;;;;;2.37;1.87;;;;;;;14.28;100.00;96842.47;5058244;28;20264;-64
2023/05/09 01:07:22;;;;;;;4.07;1.83;;;;;;;14.28;100.00;96850.44;5054515;28;20207;-64
2023/05/09 01:09:56;;;;;;;2.93;2.03;;;;;;;14.24;100.00;96849.13;5057837;28;20261;-63
2023/05/09 01:12:34;;;;;;;3.20;1.77;;;;;;;14.26;100.00;96847.13;5054675;28;20203;-63
2023/05/09 01:15:06;;;;;;;4.60;1.70;;;;;;;14.24;100.00;96836.63;5055002;28;20229;-63
2023/05/09 01:17:38;;;;;;;2.43;1.80;;;;;;;14.20;100.00;96837.13;5055486;28;20195;-63
2023/05/09 01:20:12;;;;;;;2.30;1.70;;;;;;;14.16;100.00;96822.50;5055561;28;20215;-63
2023/05/09 01:22:44;;;;;;;1.67;1.50;;;;;;;14.13;100.00;96820.16;5054912;28;20226;-62
2023/05/09 01:25:42;;;;;;;4.63;1.97;;;;;;;14.09;100.00;96821.47;5055216;28;20199;-64
2023/05/09 01:28:17;;;;;;;2.37;1.97;;;;;;;14.11;100.00;96819.47;5055199;28;20226;-63
2023/05/09 01:30:46;;;;;;;2.63;1.97;;;;;;;14.07;100.00;96824.28;5054979;28;20206;-62
2023/05/09 01:33:17;;;;;;;1.88;1.67;;;;;;;14.04;100.00;96821.94;5054590;28;20203;-64
2023/05/09 01:35:45;;;;;;;4.13;1.57;;;;;;;13.99;100.00;96815.44;5053488;28;20280;-64
2023/05/09 01:38:14;;;;;;;3.60;1.70;;;;;;;13.90;100.00;96818.06;5063966;28;20235;-63
2023/05/09 01:40:42;;;;;;;2.13;1.93;;;;;;;13.86;100.00;96816.72;5069781;28;20206;-62
2023/05/09 01:43:10;;;;;;;2.20;2.00;;;;;;;13.76;100.00;96821.31;5078480;28;20206;-64
2023/05/09 01:45:38;;;;;;;1.80;1.70;;;;;;;13.76;100.00;96809.84;5079583;28;20219;-63
2023/05/09 01:48:07;;;;;;;3.43;2.10;;;;;;;13.68;100.00;96813.28;5066490;28;20207;-64
2023/05/09 01:50:35;;;;;;;2.83;1.60;;;;;;;13.71;100.00;96806.84;5056318;28;20242;-62
2023/05/09 01:53:02;;;;;;;2.63;2.00;;;;;;;13.69;100.00;96804.34;5056725;28;20207;-63
2023/05/09 01:55:30;;;;;;;2.10;2.00;;;;;;;13.59;100.00;96811.59;5058090;28;20218;-63
2023/05/09 01:57:57;;;;;;;2.00;1.90;;;;;;;13.55;100.00;96810.22;5057369;28;20572;-64
2023/05/09 02:00:24;;;;;;;2.50;1.70;;;;;;;13.46;100.00;96814.66;5056720;28;20227;-63
2023/05/09 02:02:52;;;;;;;2.17;2.00;;;;;;;13.47;100.00;96818.16;5060577;28;20198;-64
2023/05/09 02:05:21;;;;;;;2.07;1.87;;;;;;;13.42;100.00;96810.66;5057595;28;20208;-63
2023/05/09 02:07:48;;;;;;;3.33;2.33;;;;;;;13.34;100.00;96818.56;5061190;28;20614;-63
2023/05/09 02:10:16;;;;;;;2.17;1.90;;;;;;;13.34;100.00;96818.56;5057546;28;20216;-63
2023/05/09 02:12:42;;;;;;;2.23;1.90;;;;;;;13.29;100.00;96817.34;5056653;28;20218;-63
2023/05/09 02:15:10;;;;;;;3.10;1.90;;;;;;;13.21;100.00;96825.28;5064926;28;20217;-63
2023/05/09 02:17:36;;;;;;;2.13;1.93;;;;;;;13.15;100.00;96821.41;5062987;28;20207;-63
2023/05/09 02:20:04;;;;;;;2.17;2.07;;;;;;;13.19;100.00;96817.47;5057201;28;20231;-62
2023/05/09 02:22:32;;;;;;;3.10;1.90;;;;;;;13.19;100.00;96817.47;5075139;28;20743;-61
2023/05/09 02:24:59;;;;;;;2.53;2.33;;;;;;;13.13;100.00;96814.59;5068422;28;20639;-63
2023/05/09 02:27:26;;;;;;;2.20;2.10;;;;;;;13.12;100.00;96813.75;5057152;28;20309;-63
2023/05/09 02:29:56;;;;;;;2.80;2.30;;;;;;;13.11;100.00;96806.78;5056825;28;20257;-64
2023/05/09 02:32:27;;;;;;;4.67;2.70;;;;;;;13.09;100.00;96806.09;5073332;28;20211;-64
2023/05/09 02:34:54;;;;;;;2.57;2.37;;;;;;;13.04;100.00;96807.53;5066667;28;20207;-64
2023/05/09 02:37:21;;;;;;;3.20;2.07;;;;;;;13.05;100.00;96807.38;5063811;28;20290;-63
2023/05/09 02:39:49;;;;;;;2.80;2.43;;;;;;;13.08;100.00;96806.22;5056916;28;20238;-64
2023/05/09 02:42:19;;;;;;;2.80;2.60;;;;;;;13.07;100.00;96804.56;5056879;28;20218;-63
2023/05/09 02:44:45;;;;;;;2.47;2.27;;;;;;;13.03;100.00;96803.22;5066320;28;20223;-62
2023/05/09 02:47:12;;;;;;;2.70;2.40;;;;;;;13.03;100.00;96805.88;5060941;28;20207;-63
2023/05/09 02:49:38;;;;;;;2.53;2.13;;;;;;;13.01;100.00;96802.50;5056768;28;20210;-63
2023/05/09 02:52:05;;;;;;;2.63;2.17;;;;;;;13.04;100.00;96802.22;5056611;28;20257;-63
2023/05/09 02:54:32;;;;;;;2.50;2.30;;;;;;;12.95;100.00;96798.66;5056760;28;20290;-63
2023/05/09 02:57:00;;;;;;;3.67;2.30;;;;;;;12.91;100.00;96792.00;5056597;28;20261;-63
2023/05/09 02:59:26;;;;;;;4.63;2.60;;;;;;;12.88;100.00;96801.09;5066599;28;20226;-63
2023/05/09 03:01:53;;;;;;;2.87;2.27;;;;;;;12.88;100.00;96795.78;5058170;28;20245;-63
2023/05/09 03:04:19;;;;;;;3.80;2.60;;;;;;;12.85;100.00;96797.91;5056467;28;20333;-61
2023/05/09 03:06:46;;;;;;;3.10;2.20;;;;;;;12.87;100.00;96796.78;5056338;28;20214;-62
2023/05/09 03:09:12;;;;;;;5.07;2.50;;;;;;;12.85;100.00;96803.22;5060115;28;20582;-62
2023/05/09 03:11:39;;;;;;;4.00;2.50;;;;;;;12.84;100.00;96799.75;5056344;28;20207;-62
2023/05/09 03:14:09;;;;;;;2.67;2.10;;;;;;;12.81;100.00;96802.69;5055993;28;20306;-62
2023/05/09 03:16:36;;;;;;;5.63;2.40;;;;;;;12.81;100.00;96793.91;5056398;28;20208;-62
2023/05/09 03:19:03;;;;;;;2.43;2.30;;;;;;;12.82;100.00;96784.97;5055919;28;20227;-62
2023/05/09 03:21:30;;;;;;;2.20;2.10;;;;;;;12.77;100.00;96780.09;5059678;28;20231;-62
2023/05/09 03:23:57;;;;;;;4.20;2.20;;;;;;;12.83;100.00;96783.94;5069217;28;20203;-62
2023/05/09 03:26:25;;;;;;;2.13;2.03;;;;;;;12.84;100.00;96789.13;5069776;28;20309;-61
2023/05/09 03:28:51;;;;;;;3.57;2.30;;;;;;;12.86;100.00;96797.75;5055624;28;20246;-62
2023/05/09 03:31:19;;;;;;;3.70;1.90;;;;;;;12.88;100.00;96798.44;5056239;28;20211;-62
2023/05/09 03:33:46;;;;;;;2.20;2.10;;;;;;;12.91;100.00;96792.81;5055688;28;20215;-61
2023/05/09 03:36:12;;;;;;;2.73;2.00;;;;;;;12.97;100.00;96786.06;5057703;28;20211;-62
2023/05/09 03:38:39;;;;;;;2.10;2.00;;;;;;;13.05;100.00;96788.78;5062680;28;20207;-62
2023/05/09 03:41:05;;;;;;;2.40;2.20;;;;;;;13.08;100.00;96782.31;5057263;28;20705;-61
2023/05/09 03:43:32;;;;;;;2.43;2.00;;;;;;;13.13;100.00;96782.72;5055324;28;20203;-62
2023/05/09 03:45:58;;;;;;;2.40;2.30;;;;;;;13.17;100.00;96781.44;5072813;28;20322;-61
2023/05/09 03:48:26;;;;;;;3.33;2.90;;;;;;;13.21;100.00;96782.78;5055504;28;20218;-60
2023/05/09 03:50:53;;;;;;;3.20;2.70;;;;;;;13.25;100.00;96776.19;5055750;28;20242;-62
2023/05/09 03:53:19;;;;;;;2.60;2.40;;;;;;;13.26;100.00;96776.00;5055458;28;20268;-62
2023/05/09 03:55:46;;;;;;;5.20;2.30;;;;;;;13.28;100.00;96778.53;5055744;28;20571;-61
2023/05/09 03:58:13;;;;;;;4.20;2.00;;;;;;;13.33;100.00;96776.22;5055352;28;20643;-61
2023/05/09 04:00:40;;;;;;;3.30;2.37;;;;;;;13.36;100.00;96782.06;5055867;28;20233;-61
2023/05/09 04:03:07;;;;;;;4.60;2.00;;;;;;;13.42;100.00;96780.59;5059936;28;20199;-61
2023/05/09 04:05:35;;;;;;;2.87;1.80;;;;;;;13.45;100.00;96782.94;5069309;28;20218;-61
2023/05/09 04:08:01;;;;;;;2.10;2.00;;;;;;;13.46;100.00;96781.97;5081731;28;20194;-60
2023/05/09 04:10:27;;;;;;;2.27;1.70;;;;;;;13.48;100.00;96785.28;5077372;28;20183;-62
2023/05/09 04:12:54;;;;;;;3.23;2.17;;;;;;;13.51;100.00;96778.81;5059615;28;20218;-61
2023/05/09 04:15:20;;;;;;;2.50;2.10;;;;;;;13.54;100.00;96782.00;5055537;28;20211;-60
2023/05/09 04:17:47;;;;;;;2.10;2.00;;;;;;;13.59;100.00;96782.38;5055092;28;20261;-61
2023/05/09 04:20:14;;;;;;;2.60;1.73;;;;;;;13.60;100.00;96777.88;5055013;28;20675;-61
2023/05/09 04:22:41;;;;;;;2.87;2.60;;;;;;;13.64;100.00;96784.56;5058984;28;20547;-61
2023/05/09 04:25:11;;;;;;;3.57;2.50;;;;;;;13.69;100.00;96771.59;5055299;28;20210;-61
2023/05/09 04:27:38;;;;;;;4.40;4.00;;;;;;;13.71;100.00;96780.28;5054860;28;20207;-61
2023/05/09 04:30:06;;;;;;;4.00;3.70;;;;;;;13.78;100.00;96783.97;5055153;28;20199;-62
2023/05/09 04:32:34;;;;;;;3.57;3.37;;;;;;;13.77;100.00;96780.47;5055714;28;20547;-64
2023/05/09 04:35:00;;;;;;;4.43;3.50;;;;;;;13.81;100.00;96781.81;5054531;28;20290;-64
2023/05/09 04:37:27;;;;;;;4.30;4.00;;;;;;;13.83;100.00;96774.50;5066729;28;20627;-63
2023/05/09 04:39:55;;;;;;;5.10;4.80;;;;;;;13.82;100.00;96782.63;5055166;28;20261;-67
2023/05/09 04:42:21;;;;;;;4.77;4.37;;;;;;;13.88;100.00;96777.53;5055660;28;20234;-60
2023/05/09 04:44:48;;;;;;;5.27;4.77;;;;;;;13.93;100.00;96780.50;5059622;28;20294;-61
2023/05/09 04:47:15;;;;;;;5.77;4.83;;;;;;;13.99;100.00;96773.75;5060438;28;20648;-62
2023/05/09 04:49:41;;;;;;;5.37;4.97;;;;;;;13.98;100.00;96766.75;5055394;28;20544;-61
2023/05/09 04:52:08;;;;;;;5.80;5.40;;;;;;;14.02;100.00;96775.22;5055068;28;20636;-61
2023/05/09 04:54:34;;;;;;;5.70;5.30;;;;;;;14.06;100.00;96768.59;5053597;28;20207;-62
2023/05/09 04:57:03;;;;;;;5.90;5.50;;;;;;;14.09;100.00;96778.91;5055325;28;20207;-61
2023/05/09 04:59:30;;;;;;;5.10;4.80;;;;;;;14.17;100.00;96778.94;5055141;28;20226;-62
2023/05/09 05:01:57;;;;;;;5.50;5.10;;;;;;;14.17;100.00;96776.28;5054476;28;20219;-62
2023/05/09 05:04:24;;;;;;;4.80;4.50;;;;;;;14.24;100.00;96772.00;5062076;28;20211;-61
2023/05/09 05:06:50;;;;;;;4.27;4.03;;;;;;;14.26;100.00;96776.13;5054921;28;20213;-61
2023/05/09 05:09:17;;;;;;;4.33;4.03;;;;;;;14.21;100.00;96767.81;5061848;28;20214;-61
2023/05/09 05:11:43;;;;;;;4.30;4.03;;;;;;;14.19;100.00;96758.34;5054703;28;20203;-62
2023/05/09 05:14:13;;;;;;;4.87;4.47;;;;;;;14.14;100.00;96763.28;5053604;28;20203;-61
2023/05/09 05:16:39;;;;;;;4.93;4.53;;;;;;;14.21;100.00;96759.00;5054855;28;20578;-62
2023/05/09 05:19:06;;;;;;;4.50;4.20;;;;;;;14.24;100.00;96758.69;5053761;28;20667;-62
2023/05/09 05:21:32;;;;;;;4.53;4.23;;;;;;;14.26;100.00;96759.34;5061647;28;20250;-62
2023/05/09 05:23:59;;;;;;;4.37;4.10;;;;;;;14.34;100.00;96765.56;5053964;28;20203;-61
2023/05/09 05:26:25;;;;;;;5.20;4.57;;;;;;;14.36;100.00;96757.41;5054854;28;20230;-62
2023/05/09 05:28:54;;;;;;;4.20;3.83;;;;;;;14.43;100.00;96755.75;5058053;28;20650;-62
2023/05/09 05:31:22;;;;;;;5.13;4.73;;;;;;;14.50;100.00;96756.75;5058155;28;20205;-62
2023/05/09 05:33:48;;;;;;;4.80;4.40;;;;;;;14.54;100.00;96750.09;5058168;28;20207;-61
2023/05/09 05:36:15;;;;;;;4.70;4.40;;;;;;;14.57;100.00;96752.44;5060130;28;20211;-61
2023/05/09 05:38:42;;;;;;;6.13;4.93;;;;;;;14.61;100.00;96769.75;5068801;28;20207;-63
2023/05/09 05:41:10;;;;;;;5.05;4.47;;;;;;;14.65;100.00;96764.94;5058141;28;20222;-60
2023/05/09 05:43:36;;;;;;;4.73;4.33;;;;;;;14.69;100.00;96768.94;5057774;28;20207;-62
2023/05/09 05:46:03;;;;;;;4.53;4.20;;;;;;;14.75;100.00;96766.44;5084344;28;20194;-61
2023/05/09 05:48:31;;;;;;;4.53;4.13;;;;;;;14.81;100.00;96768.41;5056574;28;20619;-61
2023/05/09 05:50:57;;;;;;;4.63;4.23;;;;;;;14.84;100.00;96770.75;5057803;28;20207;-62
2023/05/09 05:53:24;;;;;;;4.68;4.30;;;;;;;14.92;100.00;96768.09;5067717;28;20202;-62
2023/05/09 05:55:50;;;;;;;4.63;4.22;;;;;;;14.94;100.00;96763.44;5074559;28;20217;-62
2023/05/09 05:58:18;;;;;;;4.77;4.47;;;;;;;14.98;100.00;96758.63;5059934;28;20211;-61
2023/05/09 06:00:48;;;;;;;5.40;5.00;;;;;;;14.99;100.00;96751.44;5060549;28;20249;-61
2023/05/09 06:03:17;;;;;;;5.70;5.07;;;;;;;15.06;100.00;96745.28;5063952;28;20198;-62
2023/05/09 06:05:45;;;;;;;5.20;4.80;;;;;;;15.12;100.00;96743.78;5059696;28;20570;-62
2023/05/09 06:08:12;;;;;;;5.65;5.25;;;;;;;15.21;100.00;96742.75;5065023;28;20217;-61
2023/05/09 06:10:38;;;;;;;6.03;5.50;;;;;;;15.22;100.00;96737.28;5060034;28;20253;-62
2023/05/09 06:13:04;;;;;;;5.60;5.10;;;;;;;15.28;100.00;96744.59;5057880;28;20210;-62
2023/05/09 06:15:31;;;;;;;5.30;4.90;;;;;;;15.35;100.00;96752.72;5057901;28;20248;-62
2023/05/09 06:17:58;;;;;;;5.90;5.50;;;;;;;15.42;100.00;96743.88;5057786;28;20207;-62
2023/05/09 06:20:24;;;;;;;6.70;5.85;;;;;;;15.51;100.00;96744.75;5058906;28;20227;-61
2023/05/09 06:22:52;;;;;;;5.50;5.10;;;;;;;15.57;100.00;96744.03;5064511;28;20249;-62
2023/05/09 06:25:19;;;;;;;6.03;5.50;;;;;;;15.59;100.00;96739.34;5056359;28;20207;-61
2023/05/09 06:27:46;;;;;;;5.93;5.53;;;;;;;15.62;100.00;96741.72;5059962;28;20245;-64
2023/05/09 06:30:14;;;;;;;5.63;4.65;;;;;;;15.68;100.00;96735.69;5078545;28;20203;-62
2023/05/09 06:32:40;;;;;;;5.70;5.05;;;;;;;15.83;100.00;96733.97;5078928;28;20190;-61
2023/05/09 06:35:09;;;;;;;5.78;5.03;;;;;;;15.94;100.00;96736.22;5078273;28;20607;-61
2023/05/09 06:37:36;;;;;;;5.85;5.38;;;;;;;16.02;100.00;96730.00;5061741;28;20650;-60
2023/05/09 06:40:06;;;;;;;5.20;4.80;;;;;;;16.19;100.00;96726.25;5056081;28;20227;-62
2023/05/09 06:42:32;;;;;;;5.72;5.18;;;;;;;16.29;100.00;96721.53;5055905;28;20211;-62
2023/05/09 06:44:59;;;;;;;8.45;6.18;;;;;;;16.39;100.00;96714.13;5068716;28;20288;-61
2023/05/09 06:47:25;;;;;;;14.02;6.28;;;;;;;16.50;100.00;96718.22;5068927;28;20206;-61
2023/05/09 06:49:52;;;;;;;5.70;5.28;;;;;;;16.62;100.00;96711.47;5056118;28;20214;-61
2023/05/09 06:52:20;;;;;;;5.60;5.10;;;;;;;16.72;100.00;96706.72;5056918;28;20207;-62
2023/05/09 06:54:47;;;;;;;5.55;5.15;;;;;;;16.74;100.00;96715.41;5057382;28;20257;-62
2023/05/09 06:57:15;;;;;;;5.32;4.82;;;;;;;16.84;100.00;96713.31;5056439;28;20315;-63
2023/05/09 06:59:43;;;;;;;5.95;5.47;;;;;;;16.84;100.00;96704.47;5060932;28;20215;-62
2023/05/09 07:02:10;;;;;;;5.97;5.47;;;;;;;16.91;100.00;96708.91;5055930;28;20227;-61
2023/05/09 07:04:36;;;;;;;7.00;4.53;;;;;;;16.97;100.00;96703.88;5055552;28;20210;-61
2023/05/09 07:07:03;;;;;;;4.47;4.18;;;;;;;17.14;100.00;96702.69;5056915;28;20207;-62
2023/05/09 07:09:30;;;;;;;4.78;4.47;;;;;;;17.34;100.00;96695.78;5067386;28;20203;-62
2023/05/09 07:11:56;;;;;;;4.10;3.80;;;;;;;17.41;100.00;96696.72;5055449;28;20202;-62
2023/05/09 07:14:24;;;;;;;6.00;4.47;;;;;;;17.38;100.00;96691.75;5054795;28;20655;-62
2023/05/09 07:16:51;;;;;;;3.85;3.63;;;;;;;17.39;100.00;96693.41;5055453;28;20215;-62
2023/05/09 07:19:17;;;;;;;5.95;3.65;;;;;;;17.44;100.00;96680.31;5055301;28;20238;-61
2023/05/09 07:21:43;;;;;;;4.50;4.10;;;;;;;17.49;100.00;96682.44;5026456;28;1134823;-62
2023/05/09 07:24:11;;;;;;;4.03;3.70;;;;;;;17.57;100.00;96675.16;5056001;28;20640;-62
2023/05/09 07:26:38;;;;;;;4.22;3.92;;;;;;;17.57;100.00;96671.69;5056484;28;20207;-62
2023/05/09 07:29:05;;;;;;;4.28;3.30;;;;;;;17.51;100.00;96659.84;5056097;28;20215;-62
2023/05/09 07:31:32;;;;;;;3.90;3.53;;;;;;;17.46;100.00;96659.56;5056141;28;20585;-61
2023/05/09 07:33:59;;;;;;;3.50;3.30;;;;;;;17.42;100.00;96656.44;5055794;28;20528;-63
2023/05/09 07:36:26;;;;;;;3.30;3.10;;;;;;;17.42;100.00;96651.09;5059739;28;20210;-62
2023/05/09 07:38:53;;;;;;;3.67;3.33;;;;;;;17.40;100.00;96649.59;5064673;28;20210;-62
2023/05/09 07:41:20;;;;;;;4.40;4.10;;;;;;;17.49;100.00;96643.16;5056054;28;20265;-62
2023/05/09 07:43:46;;;;;;;4.38;3.95;;;;;;;17.52;100.00;96653.47;5055394;28;20298;-61
2023/05/09 07:46:12;;;;;;;3.78;3.50;;;;;;;17.68;100.00;96642.59;5068198;28;20246;-62
2023/05/09 07:48:40;;;;;;;3.97;3.65;;;;;;;17.80;100.00;96642.94;5055748;28;20211;-61
2023/05/09 07:51:07;;;;;;;4.30;4.00;;;;;;;17.92;100.00;96639.59;5054953;28;20207;-62
2023/05/09 07:53:34;;;;;;;4.40;3.90;;;;;;;17.96;100.00;96631.22;5055650;28;20289;-62
2023/05/09 07:56:00;;;;;;;4.43;4.00;;;;;;;18.10;100.00;96633.00;5055560;28;20639;-63
2023/05/09 07:58:27;;;;;;;3.72;3.42;;;;;;;18.27;100.00;96626.38;5058489;28;20513;-62
2023/05/09 08:00:56;;;;;;;4.13;3.70;;;;;;;18.16;100.00;96626.88;5057122;28;20230;-62
2023/05/09 08:03:22;;;;;;;4.57;3.42;;;;;;;18.35;100.00;96626.25;5055828;28;20207;-62
2023/05/09 08:05:54;;;;;;;4.07;3.30;;;;;;;18.66;100.00;96612.56;5055504;28;20211;-62
2023/05/09 08:08:21;;;;;;;4.00;3.70;;;;;;;18.78;100.00;96613.66;5063170;28;20194;-62
2023/05/09 08:10:47;;;;;;;3.90;3.50;;;;;;;19.15;100.00;96612.47;5055688;28;20640;-62
2023/05/09 08:13:14;;;;;;;4.47;3.75;;;;;;;18.97;97.46;96612.16;5055624;28;20222;-62
2023/05/09 08:15:42;;;;;;;3.80;3.28;;;;;;;19.22;98.27;96599.94;5055847;28;20306;-62
2023/05/09 08:18:08;;;;;;;3.67;3.40;;;;;;;19.19;99.74;96598.50;5054946;28;20596;-62
2023/05/09 08:20:35;;;;;;;4.05;3.72;;;;;;;18.99;94.34;96594.03;5058156;28;20226;-62
2023/05/09 08:23:03;;;;;;;5.05;3.53;;;;;;;19.41;97.06;96585.84;5061929;28;20199;-62
2023/05/09 08:25:29;;;;;;;3.15;2.90;;;;;;;19.82;98.91;96581.25;5055552;28;20215;-62
2023/05/09 08:27:57;;;;;;;3.78;3.42;;;;;;;20.11;94.28;96582.78;5054891;28;20211;-61
2023/05/09 08:30:28;;;;;;;3.15;2.92;;;;;;;20.52;91.05;96571.03;5068252;28;20214;-62
2023/05/09 08:32:54;;;;;;;3.40;3.10;;;;;;;20.64;93.47;96572.91;5054941;28;20211;-63
2023/05/09 08:35:21;;;;;;;3.53;3.22;;;;;;;20.53;85.09;96570.03;5054680;28;20222;-62
2023/05/09 08:37:48;;;;;;;3.42;3.20;;;;;;;20.32;84.79;96563.00;5067707;28;20206;-62
2023/05/09 08:40:17;;;;;;;3.20;3.00;;;;;;;20.19;90.25;96558.38;5054798;28;20221;-62
2023/05/09 08:42:44;;;;;;;3.45;3.20;;;;;;;20.15;90.56;96548.28;5054472;28;20317;-63
2023/05/09 08:45:13;;;;;;;3.50;3.30;;;;;;;19.88;87.92;96555.44;5071830;28;20282;-62
2023/05/09 08:47:40;;;;;;;3.10;2.90;;;;;;;20.38;90.76;96554.09;5061726;28;20237;-62
2023/05/09 08:50:08;;;;;;;3.47;2.90;;;;;;;20.87;81.07;96550.97;5057074;28;20207;-63
2023/05/09 08:52:35;;;;;;;2.67;2.47;;;;;;;21.15;82.67;96553.44;5064724;28;20203;-63
2023/05/09 08:55:03;;;;;;;3.13;2.70;;;;;;;21.23;80.42;96543.25;5063863;28;20665;-62
2023/05/09 08:57:33;;;;;;;7.97;2.80;;;;;;;21.66;77.21;96540.00;5063786;28;20274;-62
2023/05/09 09:00:00;;;;;;;2.42;2.33;;;;;;;22.17;80.39;96529.16;5070953;28;20203;-62
2023/05/09 09:02:27;;;;;;;2.50;2.30;;;;;;;22.30;78.18;96529.06;5056624;28;20230;-63
2023/05/09 09:04:54;;;;;;;3.08;2.78;;;;;;;21.97;74.86;96520.38;5055029;28;20222;-62
2023/05/09 09:07:20;;;;;;;2.70;2.50;;;;;;;22.18;78.66;96517.31;5055331;28;20206;-61
2023/05/09 09:09:48;;;;;;;3.25;3.05;;;;;;;22.40;78.04;96504.31;5063399;28;20211;-61
2023/05/09 09:12:16;;;;;;;5.35;2.80;;;;;;;22.75;74.33;96508.16;5054927;28;20199;-63
2023/05/09 09:14:48;;;;;;;2.90;2.70;;;;;;;22.73;74.29;96505.69;5054912;28;20217;-62
2023/05/09 09:17:20;;;;;;;2.78;2.58;;;;;;;22.73;74.21;96505.69;5061513;28;20225;-63
2023/05/09 09:19:49;;;;;;;3.83;2.20;;;;;;;22.49;72.77;96501.13;5073443;28;20213;-61
2023/05/09 09:22:18;;;;;;;4.00;2.88;;;;;;;22.17;71.86;96504.91;5071106;28;20564;-63
2023/05/09 09:24:45;;;;;;;4.97;2.60;;;;;;;22.04;73.28;96500.44;5059697;28;20288;-61
2023/05/09 09:27:11;;;;;;;2.83;2.53;;;;;;;22.17;70.30;96496.84;5062671;28;20229;-62
2023/05/09 09:29:38;;;;;;;6.18;2.65;;;;;;;21.75;72.63;96480.28;5072101;28;20535;-62
2023/05/09 09:32:07;;;;;;;2.38;2.25;;;;;;;21.86;72.38;96477.97;5054177;28;20620;-61
2023/05/09 09:34:33;;;;;;;2.92;2.22;;;;;;;22.23;74.83;96477.91;5054149;28;20289;-62
2023/05/09 09:37:00;;;;;;;2.08;1.95;;;;;;;22.56;69.90;96471.41;5062499;28;20198;-62
2023/05/09 09:39:26;;;;;;;2.60;2.00;;;;;;;22.86;72.44;96471.53;5058031;28;20230;-62
2023/05/09 09:41:53;;;;;;;1.40;1.30;;;;;;;23.06;71.93;96462.19;5054314;28;20233;-62
2023/05/09 09:44:21;;;;;;;1.55;1.48;;;;;;;23.01;69.50;96464.75;5055899;28;20210;-62
2023/05/09 09:46:50;;;;;;;1.85;1.70;;;;;;;23.06;66.53;96464.88;5075769;28;20211;-62
2023/05/09 09:49:19;;;;;;;1.40;1.38;;;;;;;23.24;63.25;96456.78;5053978;28;20211;-62
2023/05/09 09:51:45;;;;;;;1.70;1.20;;;;;;;23.10;66.81;96451.75;5054152;28;20266;-61
2023/05/09 09:54:12;;;;;;;1.15;1.15;;;;;;;23.24;65.62;96456.78;5053869;28;20218;-62
2023/05/09 09:56:40;;;;;;;2.10;1.33;;;;;;;23.50;66.70;96452.94;5053879;28;20627;-63
2023/05/09 09:59:11;;;;;;;1.60;1.50;;;;;;;23.59;66.84;96439.97;5053596;28;20207;-62
2023/05/09 10:01:58;;;;;;;1.05;1.05;;;;;;;23.44;63.87;96437.69;5053694;28;20227;-62
2023/05/09 10:04:28;;;;;;;1.30;1.20;;;;;;;23.52;64.66;96434.66;5053691;28;20628;-62
2023/05/09 10:06:56;;;;;;;2.25;1.10;;;;;;;23.50;64.68;96420.56;5054269;28;20207;-62
2023/05/09 10:09:23;;;;;;;1.00;1.00;;;;;;;23.76;63.48;96417.47;5063892;28;20203;-61
2023/05/09 10:11:50;;;;;;;1.58;1.02;;;;;;;23.71;61.68;96416.50;5054420;28;20206;-60
2023/05/09 10:14:18;;;;;;;1.20;1.20;;;;;;;23.79;60.57;96413.47;5064488;28;20206;-61
2023/05/09 10:16:46;;;;;;;1.52;1.42;;;;;;;23.86;62.46;96408.81;5079008;28;20202;-61
2023/05/09 10:19:12;;;;;;;1.90;1.80;;;;;;;23.91;63.68;96405.41;5059696;28;20532;-62
2023/05/09 10:21:40;;;;;;;1.90;1.80;;;;;;;24.15;63.14;96391.75;5067520;28;20234;-61
2023/05/09 10:24:08;;;;;;;2.35;2.15;;;;;;;24.05;60.68;96386.06;5066405;28;20206;-62
2023/05/09 10:26:38;;;;;;;2.65;2.10;;;;;;;23.97;63.11;96385.56;5075447;28;20227;-61
2023/05/09 10:29:08;;;;;;;2.20;2.08;;;;;;;23.65;62.15;96383.16;5066384;28;20213;-62
2023/05/09 10:31:36;;;;;;;2.30;2.20;;;;;;;23.54;62.58;96380.44;5061392;28;20195;-62
2023/05/09 10:34:05;;;;;;;2.00;1.90;;;;;;;23.26;65.45;96378.31;5068168;28;20218;-62
2023/05/09 10:36:32;;;;;;;2.38;2.17;;;;;;;23.25;63.42;96374.78;5075368;28;20256;-62
2023/05/09 10:39:01;;;;;;;1.90;1.80;;;;;;;23.11;64.90;96367.94;5078226;28;20211;-61
2023/05/09 10:41:27;;;;;;;2.97;1.73;;;;;;;23.01;65.25;96372.22;5057596;28;20234;-62
2023/05/09 10:43:55;;;;;;;1.60;1.50;;;;;;;23.09;67.58;96363.81;5057209;28;20516;-62
2023/05/09 10:46:23;;;;;;;1.77;1.65;;;;;;;23.28;68.42;96366.22;5082620;28;20234;-62
2023/05/09 10:48:49;;;;;;;2.20;2.10;;;;;;;23.26;66.06;96360.25;5061046;28;20416;-60
2023/05/09 10:51:17;;;;;;;1.70;1.60;;;;;;;23.40;65.01;96355.47;5058432;28;20218;-61
2023/05/09 10:53:44;;;;;;;1.75;1.65;;;;;;;23.51;66.97;96351.19;5062731;28;20203;-61
2023/05/09 10:56:25;;;;;;;2.67;2.45;;;;;;;23.47;65.57;96344.63;5080270;28;20211;-62
2023/05/09 10:58:51;;;;;;;1.98;1.88;;;;;;;23.59;66.70;96337.38;5061201;28;20210;-62
2023/05/09 11:01:29;;;;;;;1.73;1.63;;;;;;;23.61;68.54;96330.69;5060470;28;20206;-61
2023/05/09 11:03:58;;;;;;;2.88;2.00;;;;;;;23.68;63.29;96325.19;5058412;28;20217;-62
2023/05/09 11:06:47;;;;;;;2.58;2.47;;;;;;;23.66;67.28;96322.72;5057169;28;20298;-62
2023/05/09 11:09:26;;;;;;;2.70;2.40;;;;;;;23.41;65.76;96321.22;5071900;28;20635;-61
2023/05/09 11:11:56;;;;;;;2.17;2.00;;;;;;;23.29;67.37;96307.69;5078154;28;20202;-63
2023/05/09 11:14:33;;;;;;;2.33;2.20;;;;;;;23.13;66.09;96308.38;5086033;28;20214;-62
2023/05/09 11:17:03;;;;;;;2.47;2.35;;;;;;;23.24;66.41;96294.06;5074489;28;20214;-62
2023/05/09 11:19:55;;;;;;;2.30;2.10;;;;;;;23.21;69.83;96292.66;5057861;28;20635;-62
2023/05/09 11:22:25;;;;;;;2.90;2.65;;;;;;;23.33;65.36;96291.88;5062800;28;20246;-63
2023/05/09 11:24:54;;;;;;;2.28;2.17;;;;;;;23.09;64.76;96282.91;5054619;28;20214;-62
2023/05/09 11:27:23;;;;;;;2.60;2.33;;;;;;;22.93;67.47;96288.91;5057555;28;20211;-61
2023/05/09 11:29:54;;;;;;;3.28;2.10;;;;;;;23.05;68.47;96284.41;5056657;28;20215;-61